Indian River Shores, Florida
Current Conditions -  °F | °C
As of 4:53 AM on Thursday 18 Dec 2014 (Local Time) from KVRB Reporting Station
Scattered Clouds Scattered Clouds  
Wind Chill: 52°   Ceiling: Unl
Heat Index: 52°   Visibility: 10mi
Dew Point: 49°   Wind: 6mph
Humidity: 89%   Direction: 280°W
Pressure: 30.12"   Gusts: NA
Location:  27.7066°N, 80.3826°W
Report Text: KVRB 180953Z AUTO 28005KT 10SM SCT022 11/09 A3012 RMK AO2 SLP199 T01110094
Loading
Personal Weather Stations






























Interactive Weather Map New forecast layout! Learn more

10-Day Weather Forecast

Advertisements
Track Severe Weather on mobile